Time;durP1;ratioP1;P1;durP2;ratioP2;P2;SDS_P1;SDS_P2;PMS_P1;PMS_P2;Temp;Humidity;BMP_temperature;BMP_pressure;BME280_temperature;BME280_humidity;BME280_pressure;Samples;Min_cycle;Max_cycle;Signal;HPM_P1;HPM_P2
2024/03/02 00:01:55;;;;;;;;;;;;;;;17.54;46.86;100592.56;4955853;29;1009;-46
2024/03/02 00:04:21;;;;;;;;;;;;;;;16.63;47.90;100588.84;4955928;29;2060;-45
2024/03/02 00:06:46;;;;;;;;;;;;;;;15.90;48.15;100587.91;4959338;29;1027;-46
2024/03/02 00:09:12;;;;;;;;;;;;;;;15.64;47.62;100590.66;4959007;29;1010;-46
2024/03/02 00:11:38;;;;;;;;;;;;;;;15.51;46.73;100593.34;4959357;29;1079;-46
2024/03/02 00:14:04;;;;;;;;;;;;;;;17.00;48.12;100586.00;4956235;29;1093;-47
2024/03/02 00:16:30;;;;;;;;;;;;;;;16.61;47.97;100586.31;4959251;29;1114;-43
2024/03/02 00:18:56;;;;;;;;;;;;;;;15.95;48.45;100582.25;4958589;29;1911;-49
2024/03/02 00:21:24;;;;;;;;;;;;;;;15.60;47.74;100580.38;4959071;29;1086;-45
2024/03/02 00:23:51;;;;;;;;;;;;;;;17.21;47.66;100569.41;4957656;29;1153;-48
2024/03/02 00:26:17;;;;;;;;;;;;;;;16.31;48.13;100562.91;4950112;29;1094;-50
2024/03/02 00:28:44;;;;;;;;;;;;;;;15.74;48.19;100569.63;4955768;29;998;-48
2024/03/02 00:31:13;;;;;;;;;;;;;;;15.66;47.01;100561.38;4958953;29;1177;-46
2024/03/02 00:33:42;;;;;;;;;;;;;;;16.99;47.89;100556.91;4958687;29;1320;-45
2024/03/02 00:36:08;;;;;;;;;;;;;;;16.16;48.41;100545.34;4958328;29;2421;-46
2024/03/02 00:38:34;;;;;;;;;;;;;;;15.65;48.44;100533.13;4956380;29;1149;-49
2024/03/02 00:41:00;;;;;;;;;;;;;;;15.55;47.98;100536.47;4958959;29;1910;-48
2024/03/02 00:43:28;;;;;;;;;;;;;;;17.50;47.07;100544.09;4958705;29;1077;-46
2024/03/02 00:45:54;;;;;;;;;;;;;;;16.19;48.25;100546.94;4958622;29;1107;-43
2024/03/02 00:48:20;;;;;;;;;;;;;;;15.70;48.24;100543.44;4958232;29;1050;-43
2024/03/02 00:50:46;;;;;;;;;;;;;;;16.23;48.94;100551.06;4950872;29;1247;-46
2024/03/02 00:53:11;;;;;;;;;;;;;;;16.52;47.81;100544.50;4940028;29;1142;-45
2024/03/02 00:55:37;;;;;;;;;;;;;;;15.96;47.90;100540.66;4941077;29;1094;-45
2024/03/02 00:58:03;;;;;;;;;;;;;;;15.63;47.34;100529.78;4958030;29;1054;-46
2024/03/02 01:00:28;;;;;;;;;;;;;;;16.27;48.72;100543.72;4958494;29;1907;-44
2024/03/02 01:02:54;;;;;;;;;;;;;;;16.93;47.50;100542.31;4954590;29;1039;-45
2024/03/02 01:05:20;;;;;;;;;;;;;;;15.94;48.48;100535.47;4957751;29;2133;-44
2024/03/02 01:07:45;;;;;;;;;;;;;;;15.66;48.08;100534.84;4957866;29;1098;-48
2024/03/02 01:10:11;;;;;;;;;;;;;;;15.40;47.33;100535.75;4958353;29;994;-44
2024/03/02 01:12:36;;;;;;;;;;;;;;;15.33;46.91;100528.38;4958369;29;1070;-49
2024/03/02 01:15:05;;;;;;;;;;;;;;;16.36;48.54;100528.91;4958032;29;1061;-45
2024/03/02 01:17:31;;;;;;;;;;;;;;;16.86;47.25;100512.72;4958048;29;1065;-43
2024/03/02 01:19:56;;;;;;;;;;;;;;;15.84;48.60;100502.63;4957957;29;1903;-45
2024/03/02 01:22:25;;;;;;;;;;;;;;;17.67;46.97;100499.31;4958217;29;1010;-48
2024/03/02 01:24:50;;;;;;;;;;;;;;;16.52;48.33;100486.94;4957793;29;1026;-46
2024/03/02 01:27:16;;;;;;;;;;;;;;;15.88;48.40;100485.53;4954018;29;1102;-43
2024/03/02 01:29:41;;;;;;;;;;;;;;;15.72;47.44;100484.00;4957745;29;1058;-47
2024/03/02 01:32:07;;;;;;;;;;;;;;;15.46;47.18;100484.13;4958034;29;1121;-44
2024/03/02 01:34:32;;;;;;;;;;;;;;;17.27;47.71;100484.81;4940728;29;2046;-46
2024/03/02 01:36:58;;;;;;;;;;;;;;;16.15;48.73;100479.13;4957939;29;1050;-46
2024/03/02 01:39:23;;;;;;;;;;;;;;;15.77;47.86;100470.41;4947851;29;1906;-45
2024/03/02 01:41:49;;;;;;;;;;;;;;;15.56;47.34;100463.09;4957251;29;1119;-46
2024/03/02 01:44:14;;;;;;;;;;;;;;;16.75;48.51;100471.03;4957815;29;1046;-47
2024/03/02 01:46:40;;;;;;;;;;;;;;;16.28;48.27;100487.84;4957861;29;1069;-44
2024/03/02 01:49:06;;;;;;;;;;;;;;;15.77;47.94;100494.28;4958050;29;1079;-45
2024/03/02 01:51:31;;;;;;;;;;;;;;;16.81;48.44;100493.63;4952949;29;1034;-44
2024/03/02 01:53:57;;;;;;;;;;;;;;;16.50;48.15;100480.91;4957780;29;1098;-44
2024/03/02 01:56:22;;;;;;;;;;;;;;;15.78;48.19;100474.75;4957596;29;1022;-43
2024/03/02 01:58:48;;;;;;;;;;;;;;;16.92;48.27;100452.06;4957464;29;1907;-45
2024/03/02 02:01:14;;;;;;;;;;;;;;;16.46;48.04;100425.50;4957508;29;1173;-44
2024/03/02 02:03:41;;;;;;;;;;;;;;;16.20;49.17;100418.59;4947713;29;1120;-47
2024/03/02 02:06:07;;;;;;;;;;;;;;;17.62;46.02;100418.09;4955554;29;1966;-46
2024/03/02 02:08:33;;;;;;;;;;;;;;;16.27;48.42;100409.19;4958084;29;1083;-49
2024/03/02 02:10:58;;;;;;;;;;;;;;;15.94;47.94;100418.75;4957336;29;1038;-44
2024/03/02 02:13:24;;;;;;;;;;;;;;;17.41;46.90;100425.19;4957652;29;1413;-47
2024/03/02 02:15:50;;;;;;;;;;;;;;;16.26;48.35;100438.53;4953636;28;1002;-47
2024/03/02 02:18:16;;;;;;;;;;;;;;;15.85;47.89;100436.19;4961652;29;1041;-42
2024/03/02 02:20:41;;;;;;;;;;;;;;;15.88;48.17;100443.09;4961535;29;1906;-47
2024/03/02 02:23:09;;;;;;;;;;;;;;;17.05;47.37;100449.28;4961189;29;1494;-44
2024/03/02 02:25:35;;;;;;;;;;;;;;;15.96;48.33;100448.66;4961417;29;1034;-44
2024/03/02 02:28:00;;;;;;;;;;;;;;;15.73;47.54;100466.31;4960758;29;855;-46
2024/03/02 02:30:27;;;;;;;;;;;;;;;15.81;47.72;100458.63;4961154;29;1168;-48
2024/03/02 02:32:52;;;;;;;;;;;;;;;17.65;46.65;100478.16;4961405;29;1069;-45
2024/03/02 02:35:18;;;;;;;;;;;;;;;16.23;48.29;100470.59;4961110;29;2124;-44
2024/03/02 02:37:44;;;;;;;;;;;;;;;15.76;48.19;100466.06;4961244;28;1001;-47
2024/03/02 02:40:10;;;;;;;;;;;;;;;15.59;47.18;100470.81;4952844;29;1914;-44
2024/03/02 02:42:35;;;;;;;;;;;;;;;15.70;47.63;100488.56;4961047;29;1128;-46
2024/03/02 02:45:01;;;;;;;;;;;;;;;17.56;46.79;100484.25;4960599;29;1077;-48
2024/03/02 02:47:26;;;;;;;;;;;;;;;16.20;48.46;100486.78;4960745;29;1006;-45
2024/03/02 02:49:51;;;;;;;;;;;;;;;16.18;49.01;100481.56;4961248;29;1037;-46
2024/03/02 02:52:18;;;;;;;;;;;;;;;16.68;47.90;100499.06;4958648;29;906;-46
2024/03/02 02:54:43;;;;;;;;;;;;;;;15.98;47.98;100493.66;4960408;29;1132;-44
2024/03/02 02:57:09;;;;;;;;;;;;;;;15.63;47.33;100501.44;4961417;29;991;-46
2024/03/02 02:59:35;;;;;;;;;;;;;;;15.49;46.73;100501.59;4960423;29;1974;-47
2024/03/02 03:02:01;;;;;;;;;;;;;;;17.35;47.23;100501.81;4960591;29;1108;-48
2024/03/02 03:04:26;;;;;;;;;;;;;;;16.19;48.37;100500.97;4951371;29;2020;-43
2024/03/02 03:06:52;;;;;;;;;;;;;;;15.75;48.03;100505.00;4960792;29;1058;-45
2024/03/02 03:09:17;;;;;;;;;;;;;;;15.46;47.52;100500.03;4960481;29;1094;-46
2024/03/02 03:11:42;;;;;;;;;;;;;;;15.58;47.53;100494.78;4960639;29;1114;-44
2024/03/02 03:14:08;;;;;;;;;;;;;;;17.47;46.96;100510.63;4960575;29;982;-45
2024/03/02 03:16:34;;;;;;;;;;;;;;;16.62;47.90;100491.53;4959672;29;1106;-43
2024/03/02 03:18:59;;;;;;;;;;;;;;;15.94;48.10;100493.03;4960078;29;1910;-45
2024/03/02 03:21:25;;;;;;;;;;;;;;;15.60;47.93;100491.06;4960233;29;1065;-43
2024/03/02 03:23:51;;;;;;;;;;;;;;;16.19;48.82;100498.31;4959945;29;1490;-46
2024/03/02 03:26:16;;;;;;;;;;;;;;;17.07;47.25;100497.84;4960021;28;1108;-45
2024/03/02 03:28:42;;;;;;;;;;;;;;;15.98;48.22;100494.50;4950606;29;1060;-43
2024/03/02 03:31:07;;;;;;;;;;;;;;;15.64;47.92;100481.06;4960055;29;1185;-45
2024/03/02 03:33:33;;;;;;;;;;;;;;;15.51;46.98;100492.59;4960273;29;1148;-45
2024/03/02 03:35:58;;;;;;;;;;;;;;;17.20;47.34;100495.91;4960266;29;2377;-46
2024/03/02 03:38:23;;;;;;;;;;;;;;;16.07;48.16;100478.84;4960185;29;1029;-47
2024/03/02 03:40:49;;;;;;;;;;;;;;;15.72;47.59;100480.50;4956563;29;1959;-42
2024/03/02 03:43:15;;;;;;;;;;;;;;;16.83;48.12;100483.69;4960001;29;1057;-49
2024/03/02 03:45:41;;;;;;;;;;;;;;;16.47;47.78;100485.59;4959998;29;1112;-42
2024/03/02 03:48:06;;;;;;;;;;;;;;;15.86;48.15;100483.00;4959600;29;1450;-45
2024/03/02 03:50:32;;;;;;;;;;;;;;;15.97;48.81;100482.19;4959903;29;1021;-43
2024/03/02 03:52:57;;;;;;;;;;;;;;;17.49;46.46;100482.09;4949240;29;1065;-44
2024/03/02 03:55:23;;;;;;;;;;;;;;;16.19;48.25;100482.41;4959751;29;1141;-45
2024/03/02 03:57:48;;;;;;;;;;;;;;;15.66;47.99;100476.50;4959538;29;1174;-45
2024/03/02 04:00:14;;;;;;;;;;;;;;;16.84;48.29;100480.09;4959555;29;1981;-47
2024/03/02 04:02:39;;;;;;;;;;;;;;;16.85;47.48;100480.94;4958153;29;1104;-45
2024/03/02 04:05:08;;;;;;;;;;;;;;;15.98;48.04;100475.09;4954252;29;2073;-47
2024/03/02 04:07:39;;;;;;;;;;;;;;;15.78;47.45;100469.47;4959528;29;1037;-46
2024/03/02 04:10:07;;;;;;;;;;;;;;;15.54;46.97;100473.81;4959322;29;1185;-46
2024/03/02 04:12:33;;;;;;;;;;;;;;;15.42;46.46;100477.34;4959194;29;1058;-44
2024/03/02 04:14:59;;;;;;;;;;;;;;;17.05;47.48;100478.53;4959507;29;1068;-48
2024/03/02 04:17:24;;;;;;;;;;;;;;;16.10;48.50;100474.16;4947530;29;1018;-47
2024/03/02 04:19:50;;;;;;;;;;;;;;;15.70;48.13;100483.25;4958619;29;1910;-48
2024/03/02 04:22:15;;;;;;;;;;;;;;;15.40;47.40;100482.75;4959362;29;1221;-46
2024/03/02 04:24:41;;;;;;;;;;;;;;;16.57;48.47;100491.91;4959484;29;1169;-48
2024/03/02 04:27:07;;;;;;;;;;;;;;;16.80;47.49;100488.44;4959477;29;1077;-47
2024/03/02 04:29:32;;;;;;;;;;;;;;;15.88;48.18;100480.22;4959042;29;848;-46
2024/03/02 04:31:58;;;;;;;;;;;;;;;15.60;47.43;100479.63;4959050;29;1061;-48
2024/03/02 04:34:23;;;;;;;;;;;;;;;15.62;47.75;100485.63;4959597;29;1177;-45
2024/03/02 04:36:49;;;;;;;;;;;;;;;17.51;46.80;100492.63;4958818;28;1011;-48
2024/03/02 04:39:15;;;;;;;;;;;;;;;16.56;48.08;100489.38;4957229;29;1930;-44
2024/03/02 04:41:41;;;;;;;;;;;;;;;15.91;48.13;100483.47;4946008;29;986;-41
2024/03/02 04:44:07;;;;;;;;;;;;;;;15.67;47.32;100488.81;4959155;29;1101;-40
2024/03/02 04:46:33;;;;;;;;;;;;;;;16.47;48.38;100493.56;4958728;29;1082;-45
2024/03/02 04:48:58;;;;;;;;;;;;;;;16.33;48.01;100484.03;4958459;29;2541;-45
2024/03/02 04:51:24;;;;;;;;;;;;;;;15.90;47.96;100481.78;4957988;29;1197;-49
2024/03/02 04:53:49;;;;;;;;;;;;;;;15.67;47.19;100484.34;4958410;29;1129;-40
2024/03/02 04:58:59;;;;;;;;;;;;;;;16.74;48.10;100481.78;4949992;29;1959;-41
2024/03/02 05:01:25;;;;;;;;;;;;;;;16.29;48.25;100480.75;4945281;29;1201;-43
2024/03/02 05:03:50;;;;;;;;;;;;;;;15.76;48.08;100488.16;4957826;29;1047;-39
2024/03/02 05:06:16;;;;;;;;;;;;;;;16.91;47.93;100491.09;4957418;29;1230;-41
2024/03/02 05:08:41;;;;;;;;;;;;;;;16.58;47.92;100482.13;4958150;29;1248;-41
2024/03/02 05:13:51;;;;;;;;;;;;;;;17.24;46.15;100489.41;4948278;29;1081;-46
2024/03/02 05:16:16;;;;;;;;;;;;;;;16.92;46.39;100491.91;4957588;29;1146;-44
2024/03/02 05:18:41;;;;;;;;;;;;;;;16.59;47.22;100494.44;4958750;29;1096;-43
2024/03/02 05:21:07;;;;;;;;;;;;;;;16.35;47.73;100487.41;4957981;29;2827;-44
2024/03/02 05:23:33;;;;;;;;;;;;;;;16.19;48.22;100488.56;4958287;29;1150;-42
2024/03/02 05:25:59;;;;;;;;;;;;;;;16.00;48.32;100487.28;4958225;29;1061;-43
2024/03/02 05:28:24;;;;;;;;;;;;;;;15.95;48.27;100484.09;4958068;29;1124;-41
2024/03/02 05:30:50;;;;;;;;;;;;;;;15.78;48.70;100477.41;4958154;29;1061;-41
2024/03/02 05:33:15;;;;;;;;;;;;;;;15.71;48.77;100481.47;4957707;29;1112;-43
2024/03/02 05:35:41;;;;;;;;;;;;;;;15.53;49.31;100484.53;4958259;29;1121;-43
2024/03/02 05:38:06;;;;;;;;;;;;;;;15.48;49.07;100489.31;4957497;29;1338;-43
2024/03/02 05:40:32;;;;;;;;;;;;;;;15.30;49.40;100487.00;4950028;29;1970;-42
2024/03/02 05:42:57;;;;;;;;;;;;;;;15.23;50.09;100483.94;4957603;29;1003;-42
2024/03/02 05:45:23;;;;;;;;;;;;;;;16.84;46.63;100474.78;4949252;29;1538;-42
2024/03/02 05:47:48;;;;;;;;;;;;;;;16.81;45.97;100468.84;4952554;29;1602;-45
2024/03/02 05:50:14;;;;;;;;;;;;;;;16.12;48.02;100463.44;4959337;28;2385;-43
2024/03/02 05:52:39;;;;;;;;;;;;;;;15.77;48.26;100467.75;4959974;29;1026;-43
2024/03/02 05:55:05;;;;;;;;;;;;;;;15.58;48.78;100476.22;4962008;29;1093;-42
2024/03/02 05:57:55;;;;;;;;;;;;;;;15.34;49.36;100464.66;4961484;29;1196;-41
2024/03/02 06:00:22;;;;;;;;;;;;;;;16.08;48.37;100467.31;4956644;29;1918;-43
2024/03/02 06:02:47;;;;;;;;;;;;;;;17.28;45.22;100474.06;4959513;29;1170;-46
2024/03/02 06:05:13;;;;;;;;;;;;;;;16.41;47.06;100471.00;4961791;29;1042;-46
2024/03/02 06:07:39;;;;;;;;;;;;;;;15.95;48.25;100468.19;4961267;29;1057;-46
2024/03/02 06:10:07;;;;;;;;;;;;;;;15.68;48.94;100458.69;4961609;29;1379;-39
2024/03/02 06:12:32;;;;;;;;;;;;;;;15.41;49.32;100468.53;4957413;29;1316;-45
2024/03/02 06:14:58;;;;;;;;;;;;;;;15.35;49.39;100470.81;4961499;29;1053;-42
2024/03/02 06:17:23;;;;;;;;;;;;;;;16.84;46.45;100480.09;4961994;29;1077;-43
2024/03/02 06:19:49;;;;;;;;;;;;;;;16.93;45.75;100470.56;4961232;29;2430;-44
2024/03/02 06:22:14;;;;;;;;;;;;;;;16.05;47.72;100471.00;4961593;29;1053;-41
2024/03/02 06:24:40;;;;;;;;;;;;;;;15.80;48.17;100470.16;4954371;29;1049;-40
2024/03/02 06:27:05;;;;;;;;;;;;;;;15.56;48.92;100476.34;4954752;29;1625;-42
2024/03/02 06:29:34;;;;;;;;;;;;;;;15.43;49.22;100473.75;4958015;29;1048;-41
2024/03/02 06:32:00;;;;;;;;;;;;;;;15.87;48.73;100482.03;4961262;29;1406;-43
2024/03/02 06:34:25;;;;;;;;;;;;;;;17.17;45.20;100471.38;4955758;29;1272;-41
2024/03/02 06:36:50;;;;;;;;;;;;;;;16.69;46.25;100465.34;4952346;29;1323;-44
2024/03/02 06:39:16;;;;;;;;;;;;;;;16.03;47.62;100471.13;4960572;29;1914;-43
2024/03/02 06:41:47;;;;;;;;;;;;;;;15.72;48.47;100473.41;4961032;29;906;-42
2024/03/02 06:44:12;;;;;;;;;;;;;;;15.50;48.97;100469.66;4961081;29;1077;-42
2024/03/02 06:46:38;;;;;;;;;;;;;;;15.37;49.22;100469.72;4960858;29;1053;-44
2024/03/02 06:49:04;;;;;;;;;;;;;;;15.85;48.45;100473.31;4960872;29;2414;-43
2024/03/02 06:51:30;;;;;;;;;;;;;;;17.19;45.38;100472.97;4960729;29;1086;-41
2024/03/02 06:53:55;;;;;;;;;;;;;;;16.82;45.78;100474.06;4951621;29;1224;-43
2024/03/02 06:56:21;;;;;;;;;;;;;;;16.12;47.70;100472.25;4961232;29;1291;-42
2024/03/02 06:58:46;;;;;;;;;;;;;;;15.77;48.51;100470.41;4952142;29;1171;-42
2024/03/02 07:01:12;;;;;;;;;;;;;;;15.59;48.84;100481.41;4950059;29;1910;-46
2024/03/02 07:03:39;;;;;;;;;;;;;;;15.40;49.23;100466.00;4960649;29;1133;-45
2024/03/02 07:06:05;;;;;;;;;;;;;;;16.02;48.54;100469.47;4957973;28;1426;-43
2024/03/02 07:08:30;;;;;;;;;;;;;;;17.32;45.17;100475.50;4960826;29;1061;-42
2024/03/02 07:10:56;;;;;;;;;;;;;;;16.41;46.81;100473.66;4960884;29;1118;-48
2024/03/02 07:13:22;;;;;;;;;;;;;;;15.90;47.95;100468.53;4960553;29;1068;-42
2024/03/02 07:18:29;;;;;;;;;;;;;;;15.46;49.10;100473.50;4954806;29;1066;-43
2024/03/02 07:20:55;;;;;;;;;;;;;;;15.61;49.37;100470.69;4959917;29;2784;-40
2024/03/02 07:23:24;;;;;;;;;;;;;;;17.09;45.70;100480.84;4960531;29;1057;-44
2024/03/02 07:25:49;;;;;;;;;;;;;;;16.92;45.86;100481.28;4957055;29;1284;-42
2024/03/02 07:28:15;;;;;;;;;;;;;;;16.15;47.64;100477.34;4948335;29;1046;-39
2024/03/02 07:30:41;;;;;;;;;;;;;;;15.81;48.61;100473.69;4951756;29;1509;-39
2024/03/02 07:33:07;;;;;;;;;;;;;;;15.66;48.68;100466.72;4959763;29;1186;-39
2024/03/02 07:35:32;;;;;;;;;;;;;;;15.47;49.12;100463.75;4959689;29;1189;-41
2024/03/02 07:37:58;;;;;;;;;;;;;;;15.35;49.57;100460.19;4959260;29;1272;-42
2024/03/02 07:40:23;;;;;;;;;;;;;;;16.34;47.63;100465.31;4957967;29;1907;-42
2024/03/02 07:42:49;;;;;;;;;;;;;;;17.44;44.69;100463.03;4959371;29;1269;-39
2024/03/02 07:45:15;;;;;;;;;;;;;;;16.47;46.84;100462.56;4959935;29;1236;-40
2024/03/02 07:47:40;;;;;;;;;;;;;;;15.93;48.15;100459.50;4960040;29;1006;-40
2024/03/02 07:50:06;;;;;;;;;;;;;;;15.73;48.55;100458.34;4959467;29;2414;-39
2024/03/02 07:52:32;;;;;;;;;;;;;;;15.49;49.41;100465.34;4955518;29;1049;-39
2024/03/02 07:54:57;;;;;;;;;;;;;;;15.36;49.33;100462.75;4959138;29;1153;-38
2024/03/02 07:57:23;;;;;;;;;;;;;;;16.72;46.88;100460.66;4959419;29;1109;-40
2024/03/02 07:59:49;;;;;;;;;;;;;;;17.09;45.31;100456.91;4944737;29;1976;-39
2024/03/02 08:02:14;;;;;;;;;;;;;;;16.18;47.84;100464.78;4935771;29;1078;-40
2024/03/02 08:04:40;;;;;;;;;;;;;;;15.78;48.80;100466.81;4959577;29;1078;-42
2024/03/02 08:07:06;;;;;;;;;;;;;;;15.64;48.72;100468.66;4958973;28;1026;-40
2024/03/02 08:09:31;;;;;;;;;;;;;;;15.41;49.44;100465.88;4959400;29;1144;-39
2024/03/02 08:11:58;;;;;;;;;;;;;;;16.63;46.88;100464.03;4958727;28;1035;-40
2024/03/02 08:14:23;;;;;;;;;;;;;;;17.30;45.14;100464.13;4958691;29;1022;-40
2024/03/02 08:16:49;;;;;;;;;;;;;;;16.34;47.23;100469.78;4958961;29;1041;-40
2024/03/02 08:19:15;;;;;;;;;;;;;;;15.90;48.60;100462.38;4956490;29;1997;-42
2024/03/02 08:21:40;;;;;;;;;;;;;;;15.67;49.00;100472.88;4942711;29;1035;-39
2024/03/02 08:24:06;;;;;;;;;;;;;;;15.49;49.56;100472.44;4948276;29;1144;-41
2024/03/02 08:26:31;;;;;;;;;;;;;;;16.17;47.93;100471.91;4951919;29;1066;-39
2024/03/02 08:28:57;;;;;;;;;;;;;;;17.31;45.22;100480.94;4949629;29;1045;-38
2024/03/02 08:31:23;;;;;;;;;;;;;;;16.36;47.19;100473.16;4946039;29;1041;-43
2024/03/02 08:33:48;;;;;;;;;;;;;;;15.97;48.39;100474.22;4959492;29;1053;-39
2024/03/02 08:36:14;;;;;;;;;;;;;;;15.65;48.89;100474.78;4946297;29;1149;-44
2024/03/02 08:38:40;;;;;;;;;;;;;;;15.54;49.02;100475.59;4958727;29;1045;-44
2024/03/02 08:41:05;;;;;;;;;;;;;;;15.38;49.58;100475.88;4958492;29;1911;-43
2024/03/02 08:43:31;;;;;;;;;;;;;;;16.40;47.46;100479.91;4940817;29;1297;-45
2024/03/02 08:45:56;;;;;;;;;;;;;;;17.46;44.88;100485.03;4958837;29;1134;-45
2024/03/02 08:48:22;;;;;;;;;;;;;;;16.56;46.74;100490.22;4958215;29;1371;-42
2024/03/02 08:50:47;;;;;;;;;;;;;;;15.98;48.19;100497.16;4958294;29;1926;-46
2024/03/02 08:53:13;;;;;;;;;;;;;;;15.81;48.89;100489.59;4958224;29;1185;-43
2024/03/02 08:55:38;;;;;;;;;;;;;;;15.59;49.10;100499.97;4958039;29;1213;-43
2024/03/02 08:58:04;;;;;;;;;;;;;;;15.37;49.47;100492.72;4958384;29;999;-45
2024/03/02 09:00:29;;;;;;;;;;;;;;;16.18;48.00;100496.66;4957937;29;1968;-38
2024/03/02 09:02:55;;;;;;;;;;;;;;;17.41;45.04;100499.66;4957056;29;1168;-39
2024/03/02 09:05:21;;;;;;;;;;;;;;;16.75;46.41;100505.56;4957443;29;1366;-39
2024/03/02 09:07:46;;;;;;;;;;;;;;;16.22;47.59;100498.94;4948421;29;977;-38
2024/03/02 09:10:12;;;;;;;;;;;;;;;15.82;48.79;100497.44;4955058;29;1022;-41
2024/03/02 09:12:37;;;;;;;;;;;;;;;15.61;49.26;100500.72;4958333;29;1034;-40
2024/03/02 09:15:03;;;;;;;;;;;;;;;15.50;49.50;100490.03;4958561;29;1108;-41
2024/03/02 09:17:28;;;;;;;;;;;;;;;15.40;49.82;100493.34;4958777;29;1050;-44
2024/03/02 09:19:54;;;;;;;;;;;;;;;16.84;46.82;100489.88;4957691;29;2542;-42
2024/03/02 09:22:20;;;;;;;;;;;;;;;17.22;45.21;100487.81;4958772;29;1006;-46
2024/03/02 09:24:45;;;;;;;;;;;;;;;16.36;47.24;100481.97;4957821;28;1140;-46
2024/03/02 09:27:11;;;;;;;;;;;;;;;15.89;48.83;100490.72;4958013;29;1101;-41
2024/03/02 09:29:37;;;;;;;;;;;;;;;15.69;48.91;100481.59;4958255;29;1084;-40
2024/03/02 09:32:02;;;;;;;;;;;;;;;15.54;49.49;100479.09;4949090;29;927;-41
2024/03/02 09:34:28;;;;;;;;;;;;;;;15.40;49.87;100480.09;4953360;29;1149;-40
2024/03/02 09:36:53;;;;;;;;;;;;;;;16.34;47.82;100483.03;4957464;29;1153;-38
2024/03/02 09:39:19;;;;;;;;;;;;;;;17.44;45.06;100472.81;4958190;29;1980;-39
2024/03/02 09:41:44;;;;;;;;;;;;;;;16.48;47.22;100474.84;4957697;29;1173;-42
2024/03/02 09:44:10;;;;;;;;;;;;;;;16.05;48.35;100467.53;4951822;29;1068;-40
2024/03/02 09:46:36;;;;;;;;;;;;;;;15.83;48.71;100467.28;4957748;29;1152;-42
2024/03/02 09:49:02;;;;;;;;;;;;;;;15.65;49.11;100472.16;4958205;29;2498;-41
2024/03/02 09:51:27;;;;;;;;;;;;;;;15.40;50.01;100461.53;4952164;28;1378;-43
2024/03/02 09:53:53;;;;;;;;;;;;;;;15.41;49.81;100457.09;4950973;29;1243;-46
2024/03/02 09:56:19;;;;;;;;;;;;;;;16.67;47.05;100461.97;4938848;29;1253;-40
2024/03/02 09:58:44;;;;;;;;;;;;;;;17.15;45.50;100463.53;4956304;29;1093;-41
2024/03/02 10:01:10;;;;;;;;;;;;;;;16.22;47.94;100459.13;4957399;29;1902;-44
2024/03/02 10:03:39;;;;;;;;;;;;;;;15.87;48.94;100454.66;4958045;29;983;-43
2024/03/02 10:06:19;;;;;;;;;;;;;;;15.66;49.29;100453.47;4957849;29;1040;-42
2024/03/02 10:08:45;;;;;;;;;;;;;;;15.50;49.66;100463.50;4950565;29;1023;-43
2024/03/02 10:11:10;;;;;;;;;;;;;;;15.28;50.26;100454.50;4939992;29;1152;-46
2024/03/02 10:13:36;;;;;;;;;;;;;;;16.64;47.20;100461.25;4958048;29;1061;-40
2024/03/02 10:16:11;;;;;;;;;;;;;;;17.38;45.27;100451.06;4957791;29;1116;-44
2024/03/02 10:18:37;;;;;;;;;;;;;;;16.37;47.35;100448.28;4956639;29;1201;-44
2024/03/02 10:21:15;;;;;;;;;;;;;;;15.92;48.69;100449.84;4957217;29;2637;-43
2024/03/02 10:23:40;;;;;;;;;;;;;;;15.72;49.16;100441.56;4946284;29;1111;-44
2024/03/02 10:26:18;;;;;;;;;;;;;;;15.50;49.34;100445.81;4957892;29;1284;-40
2024/03/02 10:28:47;;;;;;;;;;;;;;;15.36;49.99;100438.88;4952893;29;1346;-42
2024/03/02 10:31:13;;;;;;;;;;;;;;;16.86;46.65;100440.97;4950272;29;1096;-42
2024/03/02 10:33:38;;;;;;;;;;;;;;;17.27;45.30;100434.31;4951155;29;1093;-40
2024/03/02 10:36:04;;;;;;;;;;;;;;;16.28;47.64;100425.97;4948143;29;949;-40
2024/03/02 10:38:30;;;;;;;;;;;;;;;15.96;48.60;100424.78;4947363;29;1177;-42
2024/03/02 10:40:56;;;;;;;;;;;;;;;15.96;48.53;100416.84;4928217;29;1895;-42
2024/03/02 10:43:21;;;;;;;;;;;;;;;15.70;49.26;100416.97;4951911;29;1036;-39
2024/03/02 10:45:48;;;;;;;;;;;;;;;15.48;49.58;100423.84;4960950;29;1133;-38
2024/03/02 10:48:13;;;;;;;;;;;;;;;15.27;49.82;100413.88;4961087;29;1145;-37
2024/03/02 10:50:39;;;;;;;;;;;;;;;15.97;49.00;100413.19;4943168;29;2490;-38
2024/03/02 10:53:05;;;;;;;;;;;;;;;17.22;45.86;100411.59;4961376;29;1101;-39
2024/03/02 10:55:31;;;;;;;;;;;;;;;16.77;46.58;100408.00;4955113;29;1229;-38
2024/03/02 10:57:56;;;;;;;;;;;;;;;16.11;48.31;100406.88;4960839;29;1093;-37
2024/03/02 11:00:29;;;;;;;;;;;;;;;15.85;48.84;100406.19;4939894;29;1910;-42
2024/03/02 11:03:02;;;;;;;;;;;;;;;15.61;49.24;100397.31;4942115;29;1249;-38
2024/03/02 11:05:28;;;;;;;;;;;;;;;15.42;49.61;100403.97;4952633;29;1181;-37
2024/03/02 11:07:57;;;;;;;;;;;;;;;16.35;48.21;100410.44;4950954;29;1168;-41
2024/03/02 11:10:22;;;;;;;;;;;;;;;17.47;45.04;100406.06;4960840;29;888;-39
2024/03/02 11:12:56;;;;;;;;;;;;;;;16.56;47.01;100405.25;4960351;29;1049;-43
2024/03/02 11:15:21;;;;;;;;;;;;;;;15.97;48.55;100404.38;4958848;29;1238;-39
2024/03/02 11:17:47;;;;;;;;;;;;;;;15.69;49.19;100409.97;4958888;29;1092;-38
2024/03/02 11:20:12;;;;;;;;;;;;;;;15.62;49.15;100400.78;4959997;29;2426;-40
2024/03/02 11:22:38;;;;;;;;;;;;;;;15.37;50.03;100400.81;4958912;29;1173;-44
2024/03/02 11:25:03;;;;;;;;;;;;;;;16.73;47.06;100403.88;4959440;29;892;-39
2024/03/02 11:27:48;;;;;;;;;;;;;;;17.47;45.03;100406.06;4953354;29;902;-40
2024/03/02 11:30:32;;;;;;;;;;;;;;;16.35;47.50;100405.94;4956687;29;1189;-42
2024/03/02 11:33:06;;;;;;;;;;;;;;;15.93;48.82;100403.81;4948303;29;841;-43
2024/03/02 11:35:32;;;;;;;;;;;;;;;15.67;49.31;100401.28;4960110;29;952;-42
2024/03/02 11:38:00;;;;;;;;;;;;;;;15.48;49.51;100396.53;4947339;29;1113;-40
2024/03/02 11:40:25;;;;;;;;;;;;;;;16.27;48.23;100397.72;4959719;29;1912;-39
2024/03/02 11:42:51;;;;;;;;;;;;;;;17.48;45.18;100403.28;4949946;29;1141;-39
2024/03/02 11:45:17;;;;;;;;;;;;;;;16.76;46.34;100389.53;4956439;29;1207;-39
2024/03/02 11:47:53;;;;;;;;;;;;;;;16.08;48.20;100393.84;4959428;28;1197;-43
2024/03/02 11:50:33;;;;;;;;;;;;;;;15.86;48.66;100394.59;4955192;29;2740;-40
2024/03/02 11:52:58;;;;;;;;;;;;;;;15.65;49.45;100392.59;4959892;29;1038;-38
2024/03/02 11:55:27;;;;;;;;;;;;;;;15.49;49.46;100384.94;4958173;29;1304;-42
2024/03/02 11:57:52;;;;;;;;;;;;;;;16.74;46.87;100380.84;4957345;29;1284;-45
2024/03/02 12:00:18;;;;;;;;;;;;;;;17.12;45.86;100384.06;4957056;29;1969;-42
2024/03/02 12:02:47;;;;;;;;;;;;;;;16.28;47.65;100380.84;4958797;29;1206;-44
2024/03/02 12:05:13;;;;;;;;;;;;;;;15.95;48.84;100372.69;4959334;29;1418;-43
2024/03/02 12:07:38;;;;;;;;;;;;;;;15.64;49.10;100377.66;4957589;29;1296;-40
2024/03/02 12:10:05;;;;;;;;;;;;;;;15.50;49.65;100374.22;4959068;29;1284;-39
2024/03/02 12:12:30;;;;;;;;;;;;;;;15.63;49.47;100376.81;4955790;29;1295;-39
2024/03/02 12:14:56;;;;;;;;;;;;;;;17.08;46.07;100371.97;4958782;29;1272;-45
2024/03/02 12:17:22;;;;;;;;;;;;;;;16.95;46.18;100372.13;4959299;28;1200;-39
2024/03/02 12:19:47;;;;;;;;;;;;;;;16.23;47.81;100372.41;4953799;29;2555;-43
2024/03/02 12:22:13;;;;;;;;;;;;;;;15.90;48.65;100370.38;4958533;29;1074;-40
2024/03/02 12:24:38;;;;;;;;;;;;;;;15.64;49.54;100367.06;4959000;29;1118;-40
2024/03/02 12:27:05;;;;;;;;;;;;;;;15.49;49.62;100359.31;4958944;29;1129;-46
2024/03/02 12:29:30;;;;;;;;;;;;;;;15.36;50.08;100358.50;4940828;29;1041;-40
2024/03/02 12:31:56;;;;;;;;;;;;;;;16.61;47.56;100368.56;4958272;29;1288;-47
2024/03/02 12:34:22;;;;;;;;;;;;;;;17.48;45.08;100370.53;4958577;29;1280;-45
2024/03/02 12:36:49;;;;;;;;;;;;;;;16.49;47.07;100374.81;4958650;29;1241;-41
2024/03/02 12:39:16;;;;;;;;;;;;;;;15.99;48.71;100363.56;4958598;29;1918;-42
2024/03/02 12:41:41;;;;;;;;;;;;;;;15.74;49.51;100369.84;4958392;29;1233;-43
2024/03/02 12:44:07;;;;;;;;;;;;;;;15.66;49.17;100373.91;4958247;29;1368;-39
2024/03/02 12:46:32;;;;;;;;;;;;;;;16.46;47.88;100375.06;4958136;29;1209;-40
2024/03/02 12:48:59;;;;;;;;;;;;;;;17.57;45.16;100371.56;4958755;29;1926;-41
2024/03/02 12:51:24;;;;;;;;;;;;;;;16.61;47.15;100378.31;4958295;29;1316;-41